createdAt,value
2022-08-18T00:00:27.970Z,0.00
2022-08-18T00:01:27.950Z,0.00
2022-08-18T00:02:30.156Z,0.00
2022-08-18T00:03:56.033Z,0.00
2022-08-18T00:04:35.831Z,0.00
2022-08-18T00:05:30.630Z,0.00
2022-08-18T00:06:28.445Z,0.00
2022-08-18T00:07:27.753Z,0.00
2022-08-18T00:08:27.764Z,0.00
2022-08-18T00:09:31.989Z,0.00
2022-08-18T00:10:28.843Z,0.00
2022-08-18T00:11:27.796Z,0.00
2022-08-18T00:12:28.748Z,0.00
2022-08-18T00:13:27.693Z,0.00
2022-08-18T00:14:27.629Z,0.00
2022-08-18T00:15:27.701Z,0.00
2022-08-18T00:16:27.644Z,0.00
2022-08-18T00:17:27.771Z,0.00
2022-08-18T00:18:27.628Z,0.00
2022-08-18T00:19:43.537Z,0.00
2022-08-18T00:20:28.588Z,0.00
2022-08-18T00:21:27.584Z,0.00
2022-08-18T00:22:27.557Z,0.00
2022-08-18T00:23:27.539Z,0.00
2022-08-18T00:24:27.579Z,0.00
2022-08-18T00:25:27.543Z,0.00
2022-08-18T00:26:27.427Z,0.00
2022-08-18T00:27:28.749Z,0.00
2022-08-18T00:28:27.445Z,0.00
2022-08-18T00:29:27.509Z,0.00
2022-08-18T00:30:27.567Z,0.00
2022-08-18T00:31:27.465Z,0.00
2022-08-18T00:32:27.487Z,0.00
2022-08-18T00:33:27.427Z,0.00
2022-08-18T00:34:27.334Z,0.00
2022-08-18T00:35:28.968Z,0.00
2022-08-18T00:36:27.313Z,0.00
2022-08-18T00:37:27.350Z,0.00
2022-08-18T00:38:27.358Z,0.00
2022-08-18T00:39:27.391Z,0.00
2022-08-18T00:40:29.343Z,0.00
2022-08-18T00:41:27.229Z,0.00
2022-08-18T00:42:30.646Z,0.00
2022-08-18T00:43:27.144Z,0.00
2022-08-18T00:44:27.170Z,0.00
2022-08-18T00:45:27.273Z,0.00
2022-08-18T00:46:27.120Z,0.00
2022-08-18T00:47:41.522Z,0.00
2022-08-18T00:48:28.191Z,0.00
2022-08-18T00:49:27.167Z,0.00
2022-08-18T00:50:27.183Z,0.00
2022-08-18T00:51:27.070Z,0.00
2022-08-18T00:52:27.108Z,0.00
2022-08-18T00:53:27.104Z,0.00
2022-08-18T00:54:26.964Z,0.00
2022-08-18T00:55:27.069Z,0.00
2022-08-18T00:56:26.999Z,0.00
2022-08-18T00:57:26.903Z,0.00
2022-08-18T00:58:26.947Z,0.00
2022-08-18T00:59:26.884Z,0.00
2022-08-18T01:00:27.128Z,0.00
2022-08-18T01:01:26.967Z,0.00
2022-08-18T01:02:26.862Z,0.00
2022-08-18T01:03:26.872Z,0.00
2022-08-18T01:04:26.789Z,0.00
2022-08-18T01:05:26.818Z,0.00
2022-08-18T01:06:26.758Z,0.00
2022-08-18T01:07:26.743Z,0.00
2022-08-18T01:08:28.933Z,0.00
2022-08-18T01:09:26.703Z,0.00
2022-08-18T01:10:26.777Z,0.00
2022-08-18T01:11:26.720Z,0.00
2022-08-18T01:12:44.334Z,0.00
2022-08-18T01:13:27.745Z,0.00
2022-08-18T01:14:26.781Z,0.00
2022-08-18T01:15:28.506Z,0.00
2022-08-18T01:16:26.651Z,0.00
2022-08-18T01:17:26.602Z,0.00
2022-08-18T01:18:26.611Z,0.00
2022-08-18T01:19:26.595Z,0.00
2022-08-18T01:20:26.601Z,0.00
2022-08-18T01:21:26.551Z,0.00
2022-08-18T01:22:26.581Z,0.00
2022-08-18T01:23:26.540Z,0.00
2022-08-18T01:24:26.552Z,0.00
2022-08-18T01:25:26.581Z,0.00
2022-08-18T01:26:26.510Z,0.00
2022-08-18T01:27:26.411Z,0.00
2022-08-18T01:28:26.490Z,0.00
2022-08-18T01:29:26.473Z,0.00
2022-08-18T01:30:26.489Z,0.00
2022-08-18T01:31:26.439Z,0.00
2022-08-18T01:32:26.357Z,0.00
2022-08-18T01:33:26.730Z,0.00
2022-08-18T01:34:26.360Z,0.00
2022-08-18T01:35:26.358Z,0.00
2022-08-18T01:36:26.258Z,0.00
2022-08-18T01:37:26.293Z,0.00
2022-08-18T01:38:26.234Z,0.00
2022-08-18T01:41:11.215Z,0.00
2022-08-18T01:41:23.601Z,0.00
2022-08-18T01:41:30.680Z,0.00
2022-08-18T01:42:27.322Z,0.00
2022-08-18T01:43:26.301Z,0.00
2022-08-18T01:44:26.180Z,0.00
2022-08-18T01:45:26.353Z,0.00
2022-08-18T01:46:26.131Z,0.00
2022-08-18T01:47:26.221Z,0.00
2022-08-18T01:48:26.098Z,0.00
2022-08-18T01:49:26.100Z,0.00
2022-08-18T01:50:26.191Z,0.00
2022-08-18T01:51:38.023Z,0.00
2022-08-18T01:52:27.131Z,0.00
2022-08-18T01:53:26.122Z,0.00
2022-08-18T01:54:26.051Z,0.00
2022-08-18T01:55:26.028Z,0.00
2022-08-18T01:56:26.119Z,0.00
2022-08-18T01:57:25.900Z,0.00
2022-08-18T01:58:28.837Z,0.00
2022-08-18T01:59:26.939Z,0.00
2022-08-18T02:00:26.005Z,0.00
2022-08-18T02:01:32.980Z,0.00
2022-08-18T02:02:26.966Z,0.00
2022-08-18T02:03:25.840Z,0.00
2022-08-18T02:04:38.097Z,0.00
2022-08-18T02:05:27.901Z,0.00
2022-08-18T02:06:32.145Z,0.00
2022-08-18T02:07:35.019Z,0.00
2022-08-18T02:08:28.082Z,0.00
2022-08-18T02:09:25.801Z,0.00
2022-08-18T02:10:25.875Z,0.00
2022-08-18T02:11:25.711Z,0.00
2022-08-18T02:12:25.735Z,0.00
2022-08-18T02:13:25.735Z,0.00
2022-08-18T02:14:27.270Z,0.00
2022-08-18T02:15:25.617Z,0.00
2022-08-18T02:16:25.653Z,0.00
2022-08-18T02:17:25.561Z,0.00
2022-08-18T02:18:41.430Z,0.00
2022-08-18T02:19:26.573Z,0.00
2022-08-18T02:20:25.652Z,0.00
2022-08-18T02:21:25.593Z,0.00
2022-08-18T02:22:25.745Z,0.00
2022-08-18T02:23:25.523Z,0.00
2022-08-18T02:24:25.444Z,0.00
2022-08-18T02:25:25.516Z,0.00
2022-08-18T02:26:25.548Z,0.00
2022-08-18T02:27:25.395Z,0.00
2022-08-18T02:28:30.537Z,0.00
2022-08-18T02:29:27.406Z,0.00
2022-08-18T02:30:25.371Z,0.00
2022-08-18T02:31:25.326Z,0.00
2022-08-18T02:32:25.523Z,0.00
2022-08-18T02:33:25.397Z,0.00
2022-08-18T02:34:25.387Z,0.00
2022-08-18T02:35:25.469Z,0.00
2022-08-18T02:36:25.582Z,0.00
2022-08-18T02:37:25.271Z,0.00
2022-08-18T02:38:25.257Z,0.00
2022-08-18T02:39:25.334Z,0.00
2022-08-18T02:40:25.396Z,0.00
2022-08-18T02:41:25.245Z,0.00
2022-08-18T02:42:25.337Z,0.00
2022-08-18T02:43:25.205Z,0.00
2022-08-18T02:44:25.105Z,0.00
2022-08-18T02:45:25.216Z,0.00
2022-08-18T02:46:29.968Z,0.00
2022-08-18T02:47:30.247Z,0.00
2022-08-18T02:48:26.141Z,0.00
2022-08-18T02:49:25.067Z,0.00
2022-08-18T02:50:25.099Z,0.00
2022-08-18T02:51:26.034Z,0.00
2022-08-18T02:52:25.153Z,0.00
2022-08-18T02:53:25.038Z,0.00
2022-08-18T02:54:24.923Z,0.00
2022-08-18T02:55:25.041Z,0.00
2022-08-18T02:56:40.478Z,0.00
2022-08-18T02:57:25.902Z,0.00
2022-08-18T02:58:24.906Z,0.00
2022-08-18T02:59:24.947Z,0.00
2022-08-18T03:00:24.920Z,0.00
2022-08-18T03:01:24.904Z,0.00
2022-08-18T03:02:25.000Z,0.00
2022-08-18T03:03:24.780Z,0.00
2022-08-18T03:04:28.831Z,0.00
2022-08-18T03:05:25.829Z,0.00
2022-08-18T03:06:24.724Z,0.00
2022-08-18T03:07:24.704Z,0.00
2022-08-18T03:08:24.828Z,0.00
2022-08-18T03:09:24.682Z,0.00
2022-08-18T03:10:32.565Z,0.00
2022-08-18T03:11:25.660Z,0.00
2022-08-18T03:12:24.761Z,0.00
2022-08-18T03:13:24.765Z,0.00
2022-08-18T03:14:24.650Z,0.00
2022-08-18T03:15:26.610Z,0.00
2022-08-18T03:16:24.566Z,0.00
2022-08-18T03:17:24.600Z,0.00
2022-08-18T03:18:24.575Z,0.00
2022-08-18T03:19:24.557Z,0.00
2022-08-18T03:20:30.231Z,0.00
2022-08-18T03:21:25.531Z,0.00
2022-08-18T03:22:28.062Z,0.00
2022-08-18T03:23:30.246Z,0.00
2022-08-18T03:24:25.591Z,0.00
2022-08-18T03:25:24.539Z,0.00
2022-08-18T03:26:24.449Z,0.00
2022-08-18T03:27:24.438Z,0.00
2022-08-18T03:28:24.425Z,0.00
2022-08-18T03:29:27.903Z,0.00
2022-08-18T03:30:26.406Z,0.00
2022-08-18T03:31:24.463Z,0.00
2022-08-18T03:32:24.485Z,0.00
2022-08-18T03:33:24.422Z,0.00
2022-08-18T03:34:24.435Z,0.00
2022-08-18T03:35:24.403Z,0.00
2022-08-18T03:36:24.456Z,0.00
2022-08-18T03:37:24.201Z,0.00
2022-08-18T03:38:24.263Z,0.00
2022-08-18T03:39:24.276Z,0.00
2022-08-18T03:40:24.238Z,0.00
2022-08-18T03:41:59.061Z,0.00
2022-08-18T03:42:25.328Z,0.00
2022-08-18T03:43:50.708Z,0.00
2022-08-18T03:44:25.190Z,0.00
2022-08-18T03:45:24.159Z,0.00
2022-08-18T03:46:24.187Z,0.00
2022-08-18T03:47:24.100Z,0.00
2022-08-18T03:48:24.083Z,0.00
2022-08-18T03:49:24.124Z,0.00
2022-08-18T03:50:24.090Z,0.00
2022-08-18T03:51:24.041Z,0.00
2022-08-18T03:52:24.055Z,0.00
2022-08-18T03:53:24.007Z,0.00
2022-08-18T03:54:24.032Z,0.00
2022-08-18T03:55:24.050Z,0.00
2022-08-18T03:56:23.995Z,0.00
2022-08-18T03:57:24.071Z,0.00
2022-08-18T03:58:24.008Z,0.00
2022-08-18T03:59:23.959Z,0.00
2022-08-18T04:00:23.865Z,0.00
2022-08-18T04:01:25.729Z,0.00
2022-08-18T04:02:23.929Z,0.00
2022-08-18T04:03:23.767Z,0.00
2022-08-18T04:04:23.884Z,0.00
2022-08-18T04:05:23.776Z,0.00
2022-08-18T04:06:30.325Z,0.00
2022-08-18T04:07:24.816Z,0.00
2022-08-18T04:08:23.789Z,0.00
2022-08-18T04:09:23.778Z,0.00
2022-08-18T04:10:23.679Z,5.62
2022-08-18T04:11:23.689Z,5.62
2022-08-18T04:12:24.336Z,5.62
2022-08-18T04:13:23.647Z,5.62
2022-08-18T04:14:23.601Z,5.62
2022-08-18T04:15:23.662Z,5.62
2022-08-18T04:16:23.632Z,5.62
2022-08-18T04:17:23.640Z,5.62
2022-08-18T04:18:23.624Z,5.62
2022-08-18T04:19:27.175Z,5.62
2022-08-18T04:20:23.716Z,11.25
2022-08-18T04:21:23.529Z,11.25
2022-08-18T04:22:23.493Z,11.25
2022-08-18T04:23:23.523Z,11.25
2022-08-18T04:24:23.473Z,11.25
2022-08-18T04:25:23.504Z,16.88
2022-08-18T04:26:23.429Z,16.88
2022-08-18T04:27:23.546Z,16.88
2022-08-18T04:28:23.394Z,16.88
2022-08-18T04:29:23.454Z,22.50
2022-08-18T04:30:23.440Z,22.50
2022-08-18T04:31:23.397Z,22.50
2022-08-18T04:32:23.413Z,22.50
2022-08-18T04:33:24.326Z,28.12
2022-08-18T04:34:23.349Z,28.12
2022-08-18T04:35:24.378Z,28.12
2022-08-18T04:36:23.297Z,28.12
2022-08-18T04:37:23.303Z,33.75
2022-08-18T04:38:23.288Z,33.75
2022-08-18T04:39:23.281Z,33.75
2022-08-18T04:40:25.314Z,39.38
2022-08-18T04:41:24.262Z,39.38
2022-08-18T04:42:23.336Z,45.00
2022-08-18T04:43:23.145Z,45.00
2022-08-18T04:44:23.222Z,45.00
2022-08-18T04:45:23.055Z,50.62
2022-08-18T04:46:24.193Z,50.62
2022-08-18T04:47:23.026Z,56.25
2022-08-18T04:48:23.002Z,56.25
2022-08-18T04:49:23.085Z,61.88
2022-08-18T04:50:22.997Z,61.88
2022-08-18T04:52:37.604Z,67.50
2022-08-18T04:52:39.740Z,73.12
2022-08-18T04:53:23.970Z,78.75
2022-08-18T04:54:22.956Z,78.75
2022-08-18T04:55:22.910Z,84.38
2022-08-18T04:56:22.868Z,84.38
2022-08-18T04:57:22.859Z,90.00
2022-08-18T04:58:22.837Z,90.00
2022-08-18T04:59:22.875Z,90.00
2022-08-18T05:00:22.892Z,90.00
2022-08-18T05:01:22.814Z,90.00
2022-08-18T05:02:22.866Z,95.62
2022-08-18T05:03:22.761Z,90.00
2022-08-18T05:04:22.863Z,90.00
2022-08-18T05:05:22.824Z,84.38
2022-08-18T05:06:22.813Z,90.00
2022-08-18T05:07:22.802Z,90.00
2022-08-18T05:08:22.782Z,90.00
2022-08-18T05:09:23.342Z,90.00
2022-08-18T05:10:22.642Z,95.62
2022-08-18T05:11:22.603Z,95.62
2022-08-18T05:12:25.807Z,95.62
2022-08-18T05:13:22.677Z,106.88
2022-08-18T05:14:22.845Z,106.88
2022-08-18T05:15:22.593Z,112.50
2022-08-18T05:16:27.578Z,112.50
2022-08-18T05:17:23.579Z,106.88
2022-08-18T05:18:22.525Z,112.50
2022-08-18T05:19:23.319Z,112.50
2022-08-18T05:20:22.680Z,118.12
2022-08-18T05:21:22.563Z,118.12
2022-08-18T05:22:30.467Z,112.50
2022-08-18T05:23:23.459Z,112.50
2022-08-18T05:24:22.487Z,106.88
2022-08-18T05:25:22.492Z,106.88
2022-08-18T05:26:22.355Z,106.88
2022-08-18T05:27:22.341Z,106.88
2022-08-18T05:28:22.431Z,112.50
2022-08-18T05:29:22.384Z,106.88
2022-08-18T05:30:22.391Z,106.88
2022-08-18T05:31:22.334Z,101.25
2022-08-18T05:32:38.352Z,95.62
2022-08-18T05:33:23.393Z,90.00
2022-08-18T05:34:22.294Z,90.00
2022-08-18T05:35:22.208Z,84.38
2022-08-18T05:36:22.210Z,78.75
2022-08-18T05:37:23.169Z,78.75
2022-08-18T05:38:22.147Z,73.12
2022-08-18T05:39:22.155Z,73.12
2022-08-18T05:40:22.194Z,73.12
2022-08-18T05:41:22.150Z,78.75
2022-08-18T05:42:22.122Z,90.00
2022-08-18T05:43:22.157Z,90.00
2022-08-18T05:44:22.123Z,95.62
2022-08-18T05:45:22.092Z,95.62
2022-08-18T05:46:22.126Z,95.62
2022-08-18T05:47:22.109Z,106.88
2022-08-18T05:48:22.037Z,118.12
2022-08-18T05:49:22.054Z,123.75
2022-08-18T05:50:21.944Z,118.12
2022-08-18T05:51:21.906Z,129.38
2022-08-18T05:52:22.015Z,140.62
2022-08-18T05:53:21.941Z,146.25
2022-08-18T05:54:21.902Z,157.50
2022-08-18T05:55:21.846Z,168.75
2022-08-18T05:56:21.989Z,180.00
2022-08-18T05:57:21.866Z,180.00
2022-08-18T05:58:21.947Z,185.62
2022-08-18T05:59:21.811Z,191.25
2022-08-18T06:00:21.822Z,191.25
2022-08-18T06:01:21.798Z,196.88
2022-08-18T06:02:21.847Z,202.50
2022-08-18T06:03:21.879Z,208.12
2022-08-18T06:04:21.818Z,208.12
2022-08-18T06:05:21.695Z,213.75
2022-08-18T06:06:21.821Z,213.75
2022-08-18T06:07:21.716Z,213.75
2022-08-18T06:08:21.764Z,213.75
2022-08-18T06:09:21.821Z,213.75
2022-08-18T06:10:21.726Z,208.12
2022-08-18T06:11:22.360Z,208.12
2022-08-18T06:12:21.599Z,213.75
2022-08-18T06:13:21.593Z,202.50
2022-08-18T06:14:21.689Z,196.88
2022-08-18T06:15:21.627Z,213.75
2022-08-18T06:16:21.672Z,219.38
2022-08-18T06:17:21.569Z,213.75
2022-08-18T06:18:21.663Z,230.62
2022-08-18T06:19:21.599Z,247.50
2022-08-18T06:20:21.448Z,264.38
2022-08-18T06:21:21.402Z,286.88
2022-08-18T06:22:21.493Z,275.62
2022-08-18T06:23:21.440Z,264.38
2022-08-18T06:24:21.434Z,281.25
2022-08-18T06:25:21.327Z,298.12
2022-08-18T06:26:21.318Z,315.00
2022-08-18T06:27:21.354Z,331.88
2022-08-18T06:28:21.345Z,360.00
2022-08-18T06:29:21.264Z,371.25
2022-08-18T06:30:21.381Z,388.12
2022-08-18T06:31:24.755Z,393.75
2022-08-18T06:32:22.228Z,393.75
2022-08-18T06:33:21.189Z,393.75
2022-08-18T06:34:21.176Z,393.75
2022-08-18T06:35:21.188Z,399.38
2022-08-18T06:36:21.593Z,399.38
2022-08-18T06:37:21.184Z,405.00
2022-08-18T06:38:21.168Z,416.25
2022-08-18T06:39:21.144Z,427.50
2022-08-18T06:40:21.110Z,433.12
2022-08-18T06:41:40.871Z,444.38
2022-08-18T06:42:22.152Z,455.62
2022-08-18T06:43:21.036Z,478.12
2022-08-18T06:44:21.003Z,495.00
2022-08-18T06:45:21.017Z,495.00
2022-08-18T06:46:21.082Z,500.62
2022-08-18T06:47:21.015Z,500.62
2022-08-18T06:48:20.986Z,495.00
2022-08-18T06:49:20.928Z,483.75
2022-08-18T06:50:20.934Z,466.88
2022-08-18T06:51:21.048Z,450.00
2022-08-18T06:52:21.028Z,444.38
2022-08-18T06:53:28.067Z,433.12
2022-08-18T06:54:21.902Z,427.50
2022-08-18T06:55:20.906Z,421.88
2022-08-18T06:56:26.599Z,433.12
2022-08-18T06:57:21.842Z,438.75
2022-08-18T06:58:20.879Z,438.75
2022-08-18T06:59:20.902Z,444.38
2022-08-18T07:00:20.871Z,444.38
2022-08-18T07:01:20.976Z,455.62
2022-08-18T07:02:20.878Z,472.50
2022-08-18T07:03:20.796Z,489.38
2022-08-18T07:04:20.724Z,500.62
2022-08-18T07:05:20.783Z,517.50
2022-08-18T07:06:20.784Z,540.00
2022-08-18T07:07:20.756Z,562.50
2022-08-18T07:08:20.681Z,579.38
2022-08-18T07:09:20.645Z,590.62
2022-08-18T07:10:20.657Z,635.62
2022-08-18T07:11:20.551Z,725.62
2022-08-18T07:12:20.788Z,961.88
2022-08-18T07:13:20.582Z,1507.50
2022-08-18T07:14:20.557Z,1479.38
2022-08-18T07:15:20.693Z,1102.50
2022-08-18T07:16:34.255Z,810.00
2022-08-18T07:17:22.455Z,714.38
2022-08-18T07:18:21.591Z,686.25
2022-08-18T07:19:20.475Z,652.50
2022-08-18T07:20:20.438Z,646.88
2022-08-18T07:21:20.389Z,624.38
2022-08-18T07:22:20.509Z,618.75
2022-08-18T07:23:21.416Z,601.88
2022-08-18T07:24:25.189Z,585.00
2022-08-18T07:25:22.355Z,568.12
2022-08-18T07:26:20.425Z,551.25
2022-08-18T07:27:20.361Z,534.38
2022-08-18T07:28:20.323Z,540.00
2022-08-18T07:29:20.356Z,545.62
2022-08-18T07:30:20.426Z,556.88
2022-08-18T07:31:20.292Z,573.75
2022-08-18T07:32:21.414Z,590.62
2022-08-18T07:33:20.311Z,613.12
2022-08-18T07:34:20.287Z,669.38
2022-08-18T07:35:20.251Z,731.25
2022-08-18T07:36:20.198Z,720.00
2022-08-18T07:37:22.913Z,838.12
2022-08-18T07:38:42.042Z,967.50
2022-08-18T07:39:22.209Z,950.62
2022-08-18T07:40:20.234Z,1051.88
2022-08-18T07:41:20.127Z,967.50
2022-08-18T07:42:37.125Z,961.88
2022-08-18T07:43:21.156Z,883.12
2022-08-18T07:44:20.076Z,821.25
2022-08-18T07:45:22.282Z,821.25
2022-08-18T07:46:20.143Z,770.62
2022-08-18T07:47:20.027Z,720.00
2022-08-18T07:48:37.712Z,663.75
2022-08-18T07:49:22.657Z,641.25
2022-08-18T07:50:55.199Z,731.25
2022-08-18T07:51:22.209Z,905.62
2022-08-18T07:52:36.141Z,826.88
2022-08-18T07:53:20.947Z,810.00
2022-08-18T07:54:45.381Z,708.75
2022-08-18T07:55:21.922Z,725.62
2022-08-18T07:56:19.865Z,753.75
2022-08-18T07:57:20.418Z,551.25
2022-08-18T07:58:20.851Z,624.38
2022-08-18T07:59:19.864Z,697.50
2022-08-18T08:00:35.177Z,607.50
2022-08-18T08:01:21.878Z,635.62
2022-08-18T08:02:20.036Z,579.38
2022-08-18T08:03:19.759Z,528.75
2022-08-18T08:04:25.082Z,517.50
2022-08-18T08:05:20.782Z,562.50
2022-08-18T08:06:19.682Z,579.38
2022-08-18T08:07:24.420Z,613.12
2022-08-18T08:08:25.522Z,590.62
2022-08-18T08:09:19.665Z,596.25
2022-08-18T08:10:19.813Z,562.50
2022-08-18T08:11:19.608Z,551.25
2022-08-18T08:12:19.678Z,534.38
2022-08-18T08:13:37.261Z,540.00
2022-08-18T08:14:26.165Z,562.50
2022-08-18T08:15:26.834Z,579.38
2022-08-18T08:16:20.539Z,624.38
2022-08-18T08:17:19.593Z,624.38
2022-08-18T08:18:19.637Z,590.62
2022-08-18T08:19:31.463Z,579.38
2022-08-18T08:20:21.468Z,663.75
2022-08-18T08:21:19.484Z,652.50
2022-08-18T08:22:19.430Z,590.62
2022-08-18T08:23:19.514Z,551.25
2022-08-18T08:24:19.477Z,568.12
2022-08-18T08:25:42.788Z,635.62
2022-08-18T08:26:21.443Z,736.88
2022-08-18T08:27:19.449Z,973.12
2022-08-18T08:28:19.482Z,1119.38
2022-08-18T08:29:19.289Z,1496.25
2022-08-18T08:30:19.474Z,1220.62
2022-08-18T08:31:36.793Z,1068.75
2022-08-18T08:32:21.345Z,990.00
2022-08-18T08:33:19.344Z,961.88
2022-08-18T08:34:19.235Z,916.88
2022-08-18T08:35:48.923Z,1181.25
2022-08-18T08:36:20.229Z,967.50
2022-08-18T08:37:19.214Z,922.50
2022-08-18T08:38:40.021Z,956.25
2022-08-18T08:39:21.241Z,995.62
2022-08-18T08:40:19.273Z,1254.38
2022-08-18T08:41:19.195Z,950.62
2022-08-18T08:42:31.743Z,855.00
2022-08-18T08:43:20.235Z,776.25
2022-08-18T08:44:19.091Z,725.62
2022-08-18T08:45:19.073Z,770.62
2022-08-18T08:46:19.192Z,843.75
2022-08-18T08:47:23.244Z,866.25
2022-08-18T08:48:19.068Z,838.12
2022-08-18T08:49:19.009Z,787.50
2022-08-18T08:50:19.086Z,765.00
2022-08-18T08:51:19.024Z,736.88
2022-08-18T08:52:19.258Z,675.00
2022-08-18T08:53:19.950Z,646.88
2022-08-18T08:54:19.032Z,680.62
2022-08-18T08:55:18.908Z,765.00
2022-08-18T08:56:18.950Z,753.75
2022-08-18T08:57:18.840Z,742.50
2022-08-18T08:58:18.963Z,748.12
2022-08-18T08:59:18.857Z,787.50
2022-08-18T09:00:18.896Z,787.50
2022-08-18T09:01:18.946Z,832.50
2022-08-18T09:02:44.376Z,849.38
2022-08-18T09:03:30.708Z,832.50
2022-08-18T09:04:19.770Z,787.50
2022-08-18T09:05:18.767Z,781.88
2022-08-18T09:06:20.495Z,815.62
2022-08-18T09:07:18.783Z,731.25
2022-08-18T09:08:18.660Z,725.62
2022-08-18T09:09:18.646Z,736.88
2022-08-18T09:10:18.726Z,742.50
2022-08-18T09:11:18.634Z,765.00
2022-08-18T09:12:18.592Z,725.62
2022-08-18T09:13:18.619Z,725.62
2022-08-18T09:14:18.603Z,731.25
2022-08-18T09:15:18.585Z,714.38
2022-08-18T09:16:18.716Z,686.25
2022-08-18T09:17:18.502Z,658.12
2022-08-18T09:18:18.576Z,630.00
2022-08-18T09:19:18.552Z,618.75
2022-08-18T09:20:18.451Z,652.50
2022-08-18T09:21:19.528Z,708.75
2022-08-18T09:22:19.273Z,714.38
2022-08-18T09:23:18.467Z,663.75
2022-08-18T09:24:18.499Z,607.50
2022-08-18T09:25:18.479Z,590.62
2022-08-18T09:26:18.506Z,573.75
2022-08-18T09:27:18.435Z,540.00
2022-08-18T09:28:18.380Z,540.00
2022-08-18T09:29:18.473Z,568.12
2022-08-18T09:30:18.299Z,613.12
2022-08-18T09:31:19.606Z,646.88
2022-08-18T09:32:18.347Z,630.00
2022-08-18T09:33:18.726Z,613.12
2022-08-18T09:34:18.237Z,579.38
2022-08-18T09:35:18.390Z,562.50
2022-08-18T09:36:19.934Z,562.50
2022-08-18T09:37:18.177Z,573.75
2022-08-18T09:38:20.722Z,568.12
2022-08-18T09:39:18.542Z,551.25
2022-08-18T09:40:18.377Z,517.50
2022-08-18T09:41:18.334Z,511.88
2022-08-18T09:43:20.213Z,495.00
2022-08-18T09:44:26.602Z,466.88
2022-08-18T09:45:19.157Z,455.62
2022-08-18T09:46:18.116Z,450.00
2022-08-18T09:47:18.059Z,455.62
2022-08-18T09:48:25.082Z,455.62
2022-08-18T09:49:19.240Z,450.00
2022-08-18T09:50:27.097Z,444.38
2022-08-18T09:51:20.110Z,444.38
2022-08-18T09:52:18.139Z,444.38
2022-08-18T09:53:17.951Z,444.38
2022-08-18T09:54:20.951Z,438.75
2022-08-18T09:55:17.908Z,433.12
2022-08-18T09:56:19.722Z,438.75
2022-08-18T09:57:19.429Z,438.75
2022-08-18T09:58:17.922Z,438.75
2022-08-18T09:59:18.003Z,438.75
2022-08-18T10:00:17.917Z,450.00
2022-08-18T10:01:17.858Z,455.62
2022-08-18T10:02:18.897Z,466.88
2022-08-18T10:04:21.490Z,483.75
2022-08-18T10:05:17.802Z,489.38
2022-08-18T10:06:17.757Z,489.38
2022-08-18T10:07:17.836Z,495.00
2022-08-18T10:09:27.455Z,506.25
2022-08-18T10:11:00.571Z,511.88
2022-08-18T10:11:20.574Z,523.12
2022-08-18T10:12:17.697Z,534.38
2022-08-18T10:13:17.737Z,551.25
2022-08-18T10:14:18.320Z,568.12
2022-08-18T10:15:26.983Z,585.00
2022-08-18T10:16:18.650Z,596.25
2022-08-18T10:17:22.123Z,601.88
2022-08-18T10:18:18.537Z,613.12
2022-08-18T10:19:17.577Z,624.38
2022-08-18T10:20:25.980Z,635.62
2022-08-18T10:22:18.565Z,635.62
2022-08-18T10:23:18.446Z,635.62
2022-08-18T10:24:35.329Z,624.38
2022-08-18T10:25:23.053Z,618.75
2022-08-18T10:26:18.490Z,624.38
2022-08-18T10:27:17.515Z,624.38
2022-08-18T10:28:17.461Z,635.62
2022-08-18T10:29:17.402Z,646.88
2022-08-18T10:30:17.393Z,658.12
2022-08-18T10:31:17.458Z,669.38
2022-08-18T10:32:17.543Z,675.00
2022-08-18T10:34:19.610Z,680.62
2022-08-18T10:35:17.367Z,680.62
2022-08-18T10:36:17.345Z,691.88
2022-08-18T10:37:17.284Z,708.75
2022-08-18T10:38:17.270Z,725.62
2022-08-18T10:39:17.315Z,748.12
2022-08-18T10:40:21.140Z,776.25
2022-08-18T10:41:17.263Z,804.38
2022-08-18T10:42:17.247Z,832.50
2022-08-18T10:44:28.778Z,883.12
2022-08-18T10:45:24.525Z,916.88
2022-08-18T10:46:25.427Z,956.25
2022-08-18T10:47:19.094Z,990.00
2022-08-18T10:48:18.219Z,1023.75
2022-08-18T10:49:17.398Z,1063.12
2022-08-18T10:50:17.140Z,1102.50
2022-08-18T10:51:21.679Z,1147.50
2022-08-18T10:52:18.226Z,1181.25
2022-08-18T10:53:39.541Z,1220.62
2022-08-18T10:54:19.058Z,1260.00
2022-08-18T10:55:17.158Z,1293.75
2022-08-18T10:56:17.065Z,1299.38
2022-08-18T10:57:17.949Z,1282.50
2022-08-18T10:58:16.938Z,1260.00
2022-08-18T10:59:17.308Z,1254.38
2022-08-18T11:00:16.963Z,1254.38
2022-08-18T11:01:16.966Z,1260.00
2022-08-18T11:02:16.927Z,1276.88
2022-08-18T11:05:17.776Z,1333.12
2022-08-18T11:06:18.274Z,1355.62
2022-08-18T11:07:18.252Z,1389.38
2022-08-18T11:09:17.775Z,1440.00
2022-08-18T11:11:38.688Z,1479.38
2022-08-18T11:12:18.750Z,1479.38
2022-08-18T11:13:16.702Z,1485.00
2022-08-18T11:14:16.754Z,1473.75
2022-08-18T11:15:23.091Z,1473.75
2022-08-18T11:16:17.691Z,1462.50
2022-08-18T11:17:16.653Z,1361.25
2022-08-18T11:18:16.682Z,1321.88
2022-08-18T11:19:16.753Z,1305.00
2022-08-18T11:21:17.567Z,1186.88
2022-08-18T11:22:16.507Z,1164.38
2022-08-18T11:23:17.503Z,1164.38
2022-08-18T11:24:16.478Z,1113.75
2022-08-18T11:25:16.451Z,1102.50
2022-08-18T11:26:18.322Z,1074.38
2022-08-18T11:27:16.472Z,1080.00
2022-08-18T11:28:18.400Z,1108.12
2022-08-18T11:29:16.453Z,1186.88
2022-08-18T11:30:17.312Z,1130.62
2022-08-18T11:31:16.570Z,1018.12
2022-08-18T11:32:17.812Z,973.12
2022-08-18T11:33:23.160Z,922.50
2022-08-18T11:34:19.892Z,883.12
2022-08-18T11:35:18.530Z,838.12
2022-08-18T11:36:16.295Z,798.75
2022-08-18T11:37:16.527Z,770.62
2022-08-18T11:38:20.755Z,753.75
2022-08-18T11:39:17.362Z,748.12
2022-08-18T11:40:28.219Z,742.50
2022-08-18T11:41:18.478Z,736.88
2022-08-18T11:42:25.162Z,742.50
2022-08-18T11:43:17.287Z,753.75
2022-08-18T11:44:16.216Z,776.25
2022-08-18T11:45:16.222Z,798.75
2022-08-18T11:46:16.901Z,821.25
2022-08-18T11:47:16.200Z,838.12
2022-08-18T11:48:16.099Z,843.75
2022-08-18T11:49:17.183Z,843.75
2022-08-18T11:50:17.133Z,838.12
2022-08-18T11:51:16.117Z,826.88
2022-08-18T11:52:16.291Z,810.00
2022-08-18T11:53:17.131Z,793.12
2022-08-18T11:54:16.090Z,770.62
2022-08-18T11:55:24.202Z,748.12
2022-08-18T11:56:17.040Z,731.25
2022-08-18T11:57:16.042Z,725.62
2022-08-18T11:58:15.937Z,725.62
2022-08-18T11:59:15.977Z,731.25
2022-08-18T12:00:24.180Z,742.50
2022-08-18T12:01:16.980Z,759.38
2022-08-18T12:02:15.926Z,776.25
2022-08-18T12:03:15.852Z,787.50
2022-08-18T12:04:15.962Z,793.12
2022-08-18T12:05:15.965Z,798.75
2022-08-18T12:06:19.398Z,804.38
2022-08-18T12:07:20.327Z,804.38
2022-08-18T12:08:41.625Z,810.00
2022-08-18T12:09:36.979Z,804.38
2022-08-18T12:10:19.230Z,798.75
2022-08-18T12:11:26.775Z,787.50
2022-08-18T12:12:16.839Z,776.25
2022-08-18T12:13:15.714Z,770.62
2022-08-18T12:14:30.113Z,765.00
2022-08-18T12:15:23.897Z,770.62
2022-08-18T12:16:17.770Z,776.25
2022-08-18T12:17:15.732Z,793.12
2022-08-18T12:18:25.911Z,804.38
2022-08-18T12:19:16.726Z,815.62
2022-08-18T12:20:15.654Z,810.00
2022-08-18T12:21:15.727Z,804.38
2022-08-18T12:22:15.763Z,793.12
2022-08-18T12:23:15.587Z,776.25
2022-08-18T12:24:15.535Z,748.12
2022-08-18T12:25:15.578Z,720.00
2022-08-18T12:26:27.331Z,691.88
2022-08-18T12:27:21.714Z,658.12
2022-08-18T12:28:16.531Z,618.75
2022-08-18T12:29:15.462Z,579.38
2022-08-18T12:30:16.575Z,551.25
2022-08-18T12:31:17.295Z,534.38
2022-08-18T12:32:17.883Z,523.12
2022-08-18T12:33:16.705Z,528.75
2022-08-18T12:34:16.588Z,534.38
2022-08-18T12:35:15.360Z,540.00
2022-08-18T12:36:15.831Z,545.62
2022-08-18T12:37:54.390Z,545.62
2022-08-18T12:38:17.429Z,540.00
2022-08-18T12:39:15.416Z,534.38
2022-08-18T12:40:15.378Z,534.38
2022-08-18T12:41:17.489Z,528.75
2022-08-18T12:42:16.361Z,528.75
2022-08-18T12:43:15.301Z,528.75
2022-08-18T12:44:15.265Z,528.75
2022-08-18T12:45:15.536Z,534.38
2022-08-18T12:46:15.235Z,545.62
2022-08-18T12:47:15.311Z,551.25
2022-08-18T12:48:15.260Z,562.50
2022-08-18T12:49:15.182Z,573.75
2022-08-18T12:50:15.263Z,585.00
2022-08-18T12:51:15.203Z,596.25
2022-08-18T12:52:15.255Z,607.50
2022-08-18T12:53:15.265Z,613.12
2022-08-18T12:54:15.119Z,618.75
2022-08-18T12:55:22.046Z,624.38
2022-08-18T12:56:16.156Z,630.00